sensor_id;sensor_type;location;lat;lon;timestamp;pressure;altitude;pressure_sealevel;temperature;humidity
5996;BME280;3026;53.612;7.278;2023-08-07T00:00:59;100690.75;;;17.05;100.00
5996;BME280;3026;53.612;7.278;2023-08-07T00:03:26;100682.91;;;17.02;100.00
5996;BME280;3026;53.612;7.278;2023-08-07T00:05:53;100675.28;;;17.04;100.00
5996;BME280;3026;53.612;7.278;2023-08-07T00:08:21;100675.28;;;17.04;100.00
5996;BME280;3026;53.612;7.278;2023-08-07T00:10:48;100677.81;;;17.05;100.00
5996;BME280;3026;53.612;7.278;2023-08-07T00:13:16;100667.88;;;17.04;100.00
5996;BME280;3026;53.612;7.278;2023-08-07T00:15:43;100663.81;;;17.07;100.00
5996;BME280;3026;53.612;7.278;2023-08-07T00:18:11;100671.47;;;17.05;100.00
5996;BME280;3026;53.612;7.278;2023-08-07T00:20:38;100664.28;;;17.04;100.00
5996;BME280;3026;53.612;7.278;2023-08-07T00:23:05;100671.47;;;17.05;100.00
5996;BME280;3026;53.612;7.278;2023-08-07T00:25:32;100670.19;;;17.01;100.00
5996;BME280;3026;53.612;7.278;2023-08-07T00:27:59;100680.13;;;17.02;100.00
5996;BME280;3026;53.612;7.278;2023-08-07T00:30:27;100670.63;;;16.98;100.00
5996;BME280;3026;53.612;7.278;2023-08-07T00:32:54;100665.56;;;16.95;100.00
5996;BME280;3026;53.612;7.278;2023-08-07T00:35:21;100670.63;;;16.98;100.00
5996;BME280;3026;53.612;7.278;2023-08-07T00:37:48;100670.25;;;16.94;100.00
5996;BME280;3026;53.612;7.278;2023-08-07T00:40:16;100669.84;;;16.90;100.00
5996;BME280;3026;53.612;7.278;2023-08-07T00:42:43;100675.97;;;16.92;100.00
5996;BME280;3026;53.612;7.278;2023-08-07T00:45:10;100662.84;;;16.88;100.00
5996;BME280;3026;53.612;7.278;2023-08-07T00:47:39;100665.38;;;16.89;100.00
5996;BME280;3026;53.612;7.278;2023-08-07T00:50:08;100663.25;;;16.91;100.00
5996;BME280;3026;53.612;7.278;2023-08-07T00:52:36;100661.59;;;16.90;100.00
5996;BME280;3026;53.612;7.278;2023-08-07T00:55:04;100663.47;;;16.90;100.00
5996;BME280;3026;53.612;7.278;2023-08-07T00:57:32;100664.13;;;16.92;100.00
5996;BME280;3026;53.612;7.278;2023-08-07T00:59:59;100666.88;;;16.92;100.00
5996;BME280;3026;53.612;7.278;2023-08-07T01:02:26;100666.03;;;16.91;100.00
5996;BME280;3026;53.612;7.278;2023-08-07T01:04:55;100661.78;;;16.89;100.00
5996;BME280;3026;53.612;7.278;2023-08-07T01:07:22;100683.63;;;16.90;100.00
5996;BME280;3026;53.612;7.278;2023-08-07T01:09:49;100680.44;;;16.87;100.00
5996;BME280;3026;53.612;7.278;2023-08-07T01:12:18;100677.88;;;16.85;100.00
5996;BME280;3026;53.612;7.278;2023-08-07T01:14:52;100673.69;;;16.83;100.00
5996;BME280;3026;53.612;7.278;2023-08-07T01:17:22;100677.88;;;16.85;100.00
5996;BME280;3026;53.612;7.278;2023-08-07T01:19:50;100671.16;;;16.81;100.00
5996;BME280;3026;53.612;7.278;2023-08-07T01:22:19;100674.53;;;16.83;100.00
5996;BME280;3026;53.612;7.278;2023-08-07T01:24:49;100690.41;;;16.81;100.00
5996;BME280;3026;53.612;7.278;2023-08-07T01:27:30;100686.38;;;16.84;100.00
5996;BME280;3026;53.612;7.278;2023-08-07T01:30:05;100703.13;;;16.82;100.00
5996;BME280;3026;53.612;7.278;2023-08-07T01:32:41;100691.50;;;16.74;100.00
5996;BME280;3026;53.612;7.278;2023-08-07T01:35:11;100687.72;;;16.68;100.00
5996;BME280;3026;53.612;7.278;2023-08-07T01:37:42;100691.94;;;16.57;100.00
5996;BME280;3026;53.612;7.278;2023-08-07T01:40:11;100691.50;;;16.54;100.00
5996;BME280;3026;53.612;7.278;2023-08-07T01:42:42;100682.22;;;16.48;100.00
5996;BME280;3026;53.612;7.278;2023-08-07T01:45:10;100683.91;;;16.49;100.00
5996;BME280;3026;53.612;7.278;2023-08-07T01:47:37;100696.59;;;16.44;100.00
5996;BME280;3026;53.612;7.278;2023-08-07T01:50:04;100710.78;;;16.41;100.00
5996;BME280;3026;53.612;7.278;2023-08-07T01:52:31;100702.53;;;16.41;100.00
5996;BME280;3026;53.612;7.278;2023-08-07T01:55:00;100706.34;;;16.40;100.00
5996;BME280;3026;53.612;7.278;2023-08-07T01:57:27;100701.47;;;16.42;100.00
5996;BME280;3026;53.612;7.278;2023-08-07T01:59:54;100702.09;;;16.44;100.00
5996;BME280;3026;53.612;7.278;2023-08-07T02:02:20;100714.84;;;16.45;100.00
5996;BME280;3026;53.612;7.278;2023-08-07T02:04:47;100708.03;;;16.47;100.00
5996;BME280;3026;53.612;7.278;2023-08-07T02:07:14;100714.84;;;16.45;100.00
5996;BME280;3026;53.612;7.278;2023-08-07T02:09:41;100713.97;;;16.38;100.00
5996;BME280;3026;53.612;7.278;2023-08-07T02:12:10;100717.38;;;16.40;100.00
5996;BME280;3026;53.612;7.278;2023-08-07T02:14:37;100712.28;;;16.37;100.00
5996;BME280;3026;53.612;7.278;2023-08-07T02:17:04;100702.13;;;16.30;100.00
5996;BME280;3026;53.612;7.278;2023-08-07T02:19:31;100705.53;;;16.26;100.00
5996;BME280;3026;53.612;7.278;2023-08-07T02:21:58;100711.03;;;16.26;100.00
5996;BME280;3026;53.612;7.278;2023-08-07T02:24:25;100717.81;;;16.23;100.00
5996;BME280;3026;53.612;7.278;2023-08-07T02:26:52;100715.47;;;16.20;100.00
5996;BME280;3026;53.612;7.278;2023-08-07T02:29:20;100712.31;;;16.17;100.00
5996;BME280;3026;53.612;7.278;2023-08-07T02:31:47;100726.28;;;16.15;100.00
5996;BME280;3026;53.612;7.278;2023-08-07T02:34:14;100720.34;;;16.12;100.00
5996;BME280;3026;53.612;7.278;2023-08-07T02:36:41;100714.41;;;16.08;100.00
5996;BME280;3026;53.612;7.278;2023-08-07T02:39:08;100716.53;;;16.06;100.00
5996;BME280;3026;53.612;7.278;2023-08-07T02:41:35;100715.47;;;16.07;100.00
5996;BME280;3026;53.612;7.278;2023-08-07T02:44:02;100709.34;;;16.05;100.00
5996;BME280;3026;53.612;7.278;2023-08-07T02:46:30;100701.72;;;16.07;100.00
5996;BME280;3026;53.612;7.278;2023-08-07T02:48:59;100703.41;;;16.08;100.00
5996;BME280;3026;53.612;7.278;2023-08-07T02:51:26;100699.59;;;16.09;100.00
5996;BME280;3026;53.612;7.278;2023-08-07T02:53:53;100700.03;;;16.06;100.00
5996;BME280;3026;53.612;7.278;2023-08-07T02:56:20;100699.19;;;16.05;100.00
5996;BME280;3026;53.612;7.278;2023-08-07T02:58:47;100712.31;;;16.03;100.00
5996;BME280;3026;53.612;7.278;2023-08-07T03:01:14;100708.09;;;16.01;100.00
5996;BME280;3026;53.612;7.278;2023-08-07T03:03:43;100705.78;;;15.98;100.00
5996;BME280;3026;53.612;7.278;2023-08-07T03:06:10;100696.25;;;16.00;100.00
5996;BME280;3026;53.612;7.278;2023-08-07T03:08:37;100690.28;;;15.97;100.00
5996;BME280;3026;53.612;7.278;2023-08-07T03:11:04;100685.84;;;15.96;100.00
5996;BME280;3026;53.612;7.278;2023-08-07T03:13:30;100677.59;;;15.96;100.00
5996;BME280;3026;53.612;7.278;2023-08-07T03:16:01;100693.28;;;16.02;100.00
5996;BME280;3026;53.612;7.278;2023-08-07T03:18:29;100686.09;;;16.01;100.00
5996;BME280;3026;53.612;7.278;2023-08-07T03:20:58;100693.28;;;16.02;100.00
5996;BME280;3026;53.612;7.278;2023-08-07T03:23:26;100690.50;;;15.95;100.00
5996;BME280;3026;53.612;7.278;2023-08-07T03:26:02;100686.72;;;15.90;100.00
5996;BME280;3026;53.612;7.278;2023-08-07T03:28:29;100697.72;;;15.90;100.00
5996;BME280;3026;53.612;7.278;2023-08-07T03:30:56;100692.44;;;15.88;100.00
5996;BME280;3026;53.612;7.278;2023-08-07T03:33:23;100686.50;;;15.85;100.00
5996;BME280;3026;53.612;7.278;2023-08-07T03:35:50;100693.28;;;15.89;100.00
5996;BME280;3026;53.612;7.278;2023-08-07T03:38:18;100680.16;;;15.91;100.00
5996;BME280;3026;53.612;7.278;2023-08-07T03:40:46;100689.03;;;15.93;100.00
5996;BME280;3026;53.612;7.278;2023-08-07T03:43:13;100688.59;;;15.96;100.00
5996;BME280;3026;53.612;7.278;2023-08-07T03:45:40;100703.41;;;15.95;100.00
5996;BME280;3026;53.612;7.278;2023-08-07T03:48:07;100695.81;;;15.90;100.00
5996;BME280;3026;53.612;7.278;2023-08-07T03:50:34;100703.84;;;15.92;100.00
5996;BME280;3026;53.612;7.278;2023-08-07T03:53:03;100703.44;;;15.88;100.00
5996;BME280;3026;53.612;7.278;2023-08-07T03:55:34;100684.81;;;15.90;100.00
5996;BME280;3026;53.612;7.278;2023-08-07T03:58:01;100685.22;;;15.94;100.00
5996;BME280;3026;53.612;7.278;2023-08-07T04:00:28;100675.91;;;15.95;100.00
5996;BME280;3026;53.612;7.278;2023-08-07T04:02:55;100687.53;;;15.97;100.00
5996;BME280;3026;53.612;7.278;2023-08-07T04:05:22;100674.84;;;15.96;100.00
5996;BME280;3026;53.612;7.278;2023-08-07T04:07:49;100683.78;;;15.98;100.00
5996;BME280;3026;53.612;7.278;2023-08-07T04:10:16;100682.03;;;15.97;100.00
5996;BME280;3026;53.612;7.278;2023-08-07T04:12:45;100686.91;;;15.95;100.00
5996;BME280;3026;53.612;7.278;2023-08-07T04:15:11;100689.47;;;15.90;100.00
5996;BME280;3026;53.612;7.278;2023-08-07T04:17:38;100683.53;;;15.80;100.00
5996;BME280;3026;53.612;7.278;2023-08-07T04:20:07;100694.97;;;15.77;100.00
5996;BME280;3026;53.612;7.278;2023-08-07T04:22:34;100691.59;;;15.74;100.00
5996;BME280;3026;53.612;7.278;2023-08-07T04:25:01;100690.28;;;15.70;100.00
5996;BME280;3026;53.612;7.278;2023-08-07T04:27:28;100698.09;;;15.73;100.00
5996;BME280;3026;53.612;7.278;2023-08-07T04:29:56;100703.59;;;15.73;100.00
5996;BME280;3026;53.612;7.278;2023-08-07T04:32:23;100697.47;;;15.71;100.00
5996;BME280;3026;53.612;7.278;2023-08-07T04:34:50;100701.72;;;15.74;100.00
5996;BME280;3026;53.612;7.278;2023-08-07T04:37:17;100701.91;;;15.72;100.00
5996;BME280;3026;53.612;7.278;2023-08-07T04:39:44;100699.59;;;15.69;100.00
5996;BME280;3026;53.612;7.278;2023-08-07T04:42:12;100705.53;;;15.66;100.00
5996;BME280;3026;53.612;7.278;2023-08-07T04:44:38;100721.16;;;15.66;100.00
5996;BME280;3026;53.612;7.278;2023-08-07T04:47:07;100712.88;;;15.59;100.00
5996;BME280;3026;53.612;7.278;2023-08-07T04:49:34;100720.31;;;15.65;100.00
5996;BME280;3026;53.612;7.278;2023-08-07T04:52:01;100728.78;;;15.70;100.00
5996;BME280;3026;53.612;7.278;2023-08-07T04:54:28;100731.53;;;15.70;100.00
5996;BME280;3026;53.612;7.278;2023-08-07T04:57:02;100732.59;;;15.69;100.00
5996;BME280;3026;53.612;7.278;2023-08-07T04:59:31;100733.44;;;15.63;100.00
5996;BME280;3026;53.612;7.278;2023-08-07T05:01:58;100728.31;;;15.60;100.00
5996;BME280;3026;53.612;7.278;2023-08-07T05:04:27;100722.38;;;15.57;100.00
5996;BME280;3026;53.612;7.278;2023-08-07T05:06:54;100731.25;;;15.59;100.00
5996;BME280;3026;53.612;7.278;2023-08-07T05:09:21;100717.09;;;15.55;100.00
5996;BME280;3026;53.612;7.278;2023-08-07T05:11:49;100717.53;;;15.52;100.00
5996;BME280;3026;53.612;7.278;2023-08-07T05:14:15;100727.84;;;15.50;100.00
5996;BME280;3026;53.612;7.278;2023-08-07T05:16:42;100733.75;;;15.47;100.00
5996;BME280;3026;53.612;7.278;2023-08-07T05:19:09;100738.16;;;15.35;100.00
5996;BME280;3026;53.612;7.278;2023-08-07T05:21:37;100740.50;;;15.31;100.00
5996;BME280;3026;53.612;7.278;2023-08-07T05:24:04;100728.19;;;15.21;100.00
5996;BME280;3026;53.612;7.278;2023-08-07T05:26:31;100732.41;;;15.16;100.00
5996;BME280;3026;53.612;7.278;2023-08-07T05:28:58;100730.69;;;15.15;100.00
5996;BME280;3026;53.612;7.278;2023-08-07T05:31:25;100736.19;;;15.15;100.00
5996;BME280;3026;53.612;7.278;2023-08-07T05:33:52;100736.22;;;15.22;100.00
5996;BME280;3026;53.612;7.278;2023-08-07T05:36:18;100744.25;;;15.24;100.00
5996;BME280;3026;53.612;7.278;2023-08-07T05:38:47;100742.16;;;15.26;100.00
5996;BME280;3026;53.612;7.278;2023-08-07T05:41:13;100740.91;;;15.28;100.00
5996;BME280;3026;53.612;7.278;2023-08-07T05:43:40;100751.03;;;15.28;100.00
5996;BME280;3026;53.612;7.278;2023-08-07T05:46:07;100755.88;;;15.26;100.00
5996;BME280;3026;53.612;7.278;2023-08-07T05:48:34;100748.91;;;15.23;100.00
5996;BME280;3026;53.612;7.278;2023-08-07T05:51:01;100747.63;;;15.26;100.00
5996;BME280;3026;53.612;7.278;2023-08-07T05:53:28;100744.25;;;15.24;100.00
5996;BME280;3026;53.612;7.278;2023-08-07T05:55:56;100759.47;;;15.26;100.00
5996;BME280;3026;53.612;7.278;2023-08-07T05:58:23;100756.50;;;15.28;100.00
5996;BME280;3026;53.612;7.278;2023-08-07T06:00:49;100758.25;;;15.29;100.00
5996;BME280;3026;53.612;7.278;2023-08-07T06:03:16;100761.63;;;15.31;100.00
5996;BME280;3026;53.612;7.278;2023-08-07T06:05:44;100772.59;;;15.31;100.00
5996;BME280;3026;53.612;7.278;2023-08-07T06:08:11;100762.88;;;15.28;100.00
5996;BME280;3026;53.612;7.278;2023-08-07T06:10:37;100765.44;;;15.30;100.00
5996;BME280;3026;53.612;7.278;2023-08-07T06:13:06;100769.88;;;15.31;100.00
5996;BME280;3026;53.612;7.278;2023-08-07T06:15:34;100765.44;;;15.30;100.00
5996;BME280;3026;53.612;7.278;2023-08-07T06:18:01;100766.47;;;15.29;100.00
5996;BME280;3026;53.612;7.278;2023-08-07T06:20:27;100786.97;;;15.33;100.00
5996;BME280;3026;53.612;7.278;2023-08-07T06:22:54;100789.09;;;15.31;100.00
5996;BME280;3026;53.612;7.278;2023-08-07T06:25:21;100785.28;;;15.32;100.00
5996;BME280;3026;53.612;7.278;2023-08-07T06:27:50;100805.56;;;15.31;100.00
5996;BME280;3026;53.612;7.278;2023-08-07T06:30:19;100800.47;;;15.28;100.00
5996;BME280;3026;53.612;7.278;2023-08-07T06:33:13;100790.78;;;15.32;100.00
5996;BME280;3026;53.612;7.278;2023-08-07T06:36:08;100793.31;;;15.33;100.00
5996;BME280;3026;53.612;7.278;2023-08-07T07:02:13;100800.13;;;15.44;100.00
5996;BME280;3026;53.612;7.278;2023-08-07T07:04:46;100803.50;;;15.46;100.00
5996;BME280;3026;53.612;7.278;2023-08-07T07:07:13;100798.44;;;15.50;100.00
5996;BME280;3026;53.612;7.278;2023-08-07T07:09:42;100801.66;;;15.53;100.00
5996;BME280;3026;53.612;7.278;2023-08-07T07:12:27;100807.38;;;15.58;100.00
5996;BME280;3026;53.612;7.278;2023-08-07T07:15:55;100803.97;;;15.56;100.00
5996;BME280;3026;53.612;7.278;2023-08-07T07:24:25;100824.81;;;15.79;100.00
5996;BME280;3026;53.612;7.278;2023-08-07T07:26:58;100823.53;;;15.81;100.00
5996;BME280;3026;53.612;7.278;2023-08-07T07:29:41;100833.69;;;15.81;100.00
5996;BME280;3026;53.612;7.278;2023-08-07T07:32:32;100820.13;;;15.72;100.00
5996;BME280;3026;53.612;7.278;2023-08-07T07:35:15;100830.28;;;15.72;100.00
5996;BME280;3026;53.612;7.278;2023-08-07T07:37:58;100830.72;;;15.75;100.00
5996;BME280;3026;53.612;7.278;2023-08-07T07:40:37;100837.91;;;15.77;100.00
5996;BME280;3026;53.612;7.278;2023-08-07T07:43:18;100838.72;;;15.70;100.00
5996;BME280;3026;53.612;7.278;2023-08-07T07:49:03;100849.31;;;15.73;100.00
5996;BME280;3026;53.612;7.278;2023-08-07T07:51:49;100846.34;;;15.68;100.00
5996;BME280;3026;53.612;7.278;2023-08-07T08:11:57;100883.69;;;16.17;100.00
5996;BME280;3026;53.612;7.278;2023-08-07T08:14:44;100890.06;;;16.24;100.00
5996;BME280;3026;53.612;7.278;2023-08-07T08:18:10;100901.94;;;16.25;100.00
5996;BME280;3026;53.612;7.278;2023-08-07T08:48:58;100941.28;;;16.25;100.00
5996;BME280;3026;53.612;7.278;2023-08-07T08:51:30;100952.25;;;16.19;100.00
5996;BME280;3026;53.612;7.278;2023-08-07T09:06:43;100942.03;;;15.58;100.00
5996;BME280;3026;53.612;7.278;2023-08-07T09:09:14;100957.44;;;15.53;100.00
5996;BME280;3026;53.612;7.278;2023-08-07T09:11:46;100939.63;;;15.42;100.00
5996;BME280;3026;53.612;7.278;2023-08-07T09:14:41;100949.50;;;15.36;100.00
5996;BME280;3026;53.612;7.278;2023-08-07T09:21:17;100944.03;;;15.08;100.00
5996;BME280;3026;53.612;7.278;2023-08-07T11:16:06;101013.75;;;16.46;100.00
5996;BME280;3026;53.612;7.278;2023-08-07T11:18:33;101010.16;;;16.52;100.00
5996;BME280;3026;53.612;7.278;2023-08-07T11:21:15;101001.09;;;16.58;100.00
5996;BME280;3026;53.612;7.278;2023-08-07T11:24:04;101006.16;;;16.61;100.00
5996;BME280;3026;53.612;7.278;2023-08-07T11:34:27;101016.75;;;16.64;100.00
5996;BME280;3026;53.612;7.278;2023-08-07T11:37:15;101008.53;;;16.77;100.00
5996;BME280;3026;53.612;7.278;2023-08-07T11:40:12;101023.41;;;16.96;100.00
5996;BME280;3026;53.612;7.278;2023-08-07T11:42:40;101020.25;;;17.06;100.00
5996;BME280;3026;53.612;7.278;2023-08-07T11:45:08;101020.69;;;17.16;100.00
5996;BME280;3026;53.612;7.278;2023-08-07T11:47:41;101023.19;;;17.24;100.00
5996;BME280;3026;53.612;7.278;2023-08-07T11:50:21;101026.16;;;17.36;100.00
5996;BME280;3026;53.612;7.278;2023-08-07T11:53:05;101022.56;;;17.42;100.00
5996;BME280;3026;53.612;7.278;2023-08-07T11:55:33;101033.78;;;17.47;100.00
5996;BME280;3026;53.612;7.278;2023-08-07T11:58:14;101033.81;;;17.54;100.00
5996;BME280;3026;53.612;7.278;2023-08-07T12:01:39;101034.88;;;17.53;100.00
5996;BME280;3026;53.612;7.278;2023-08-07T12:07:47;101044.63;;;17.75;100.00
5996;BME280;3026;53.612;7.278;2023-08-07T12:10:17;101037.63;;;17.79;100.00
5996;BME280;3026;53.612;7.278;2023-08-07T12:12:44;101044.81;;;17.80;100.00
5996;BME280;3026;53.612;7.278;2023-08-07T12:15:16;101035.91;;;17.78;100.00
5996;BME280;3026;53.612;7.278;2023-08-07T12:18:07;101050.31;;;17.67;100.00
5996;BME280;3026;53.612;7.278;2023-08-07T12:21:07;101052.66;;;17.57;100.00
5996;BME280;3026;53.612;7.278;2023-08-07T12:23:36;101048.66;;;17.39;100.00
5996;BME280;3026;53.612;7.278;2023-08-07T12:26:09;101057.13;;;17.31;100.00
5996;BME280;3026;53.612;7.278;2023-08-07T12:28:36;101059.47;;;17.21;100.00
5996;BME280;3026;53.612;7.278;2023-08-07T12:31:06;101057.56;;;17.15;100.00
5996;BME280;3026;53.612;7.278;2023-08-07T12:33:33;101048.22;;;17.16;100.00
5996;BME280;3026;53.612;7.278;2023-08-07T12:36:01;101049.94;;;17.17;100.00
5996;BME280;3026;53.612;7.278;2023-08-07T12:38:28;101056.28;;;17.24;100.00
5996;BME280;3026;53.612;7.278;2023-08-07T12:41:01;101059.69;;;17.26;100.00
5996;BME280;3026;53.612;7.278;2023-08-07T12:43:31;101063.06;;;17.21;100.00
5996;BME280;3026;53.612;7.278;2023-08-07T12:46:00;101070.66;;;17.13;100.00
5996;BME280;3026;53.612;7.278;2023-08-07T12:48:31;101078.75;;;17.08;100.00
5996;BME280;3026;53.612;7.278;2023-08-07T12:50:59;101089.31;;;16.98;100.00
5996;BME280;3026;53.612;7.278;2023-08-07T12:53:27;101085.00;;;16.75;100.00
5996;BME280;3026;53.612;7.278;2023-08-07T12:55:58;101075.69;;;16.70;100.00
5996;BME280;3026;53.612;7.278;2023-08-07T12:58:27;101048.38;;;16.68;100.00
5996;BME280;3026;53.612;7.278;2023-08-07T13:00:55;101062.28;;;16.67;100.00
5996;BME280;3026;53.612;7.278;2023-08-07T13:03:22;101056.63;;;16.68;100.00
5996;BME280;3026;53.612;7.278;2023-08-07T13:05:49;101068.94;;;16.79;100.00
5996;BME280;3026;53.612;7.278;2023-08-07T13:08:16;101086.09;;;16.87;100.00
5996;BME280;3026;53.612;7.278;2023-08-07T13:10:43;101077.88;;;17.01;100.00
5996;BME280;3026;53.612;7.278;2023-08-07T13:13:10;101086.56;;;17.11;100.00
5996;BME280;3026;53.612;7.278;2023-08-07T13:15:38;101083.19;;;17.22;100.00
5996;BME280;3026;53.612;7.278;2023-08-07T13:18:06;101074.09;;;17.28;100.00
5996;BME280;3026;53.612;7.278;2023-08-07T13:20:33;101086.38;;;17.32;100.00
5996;BME280;3026;53.612;7.278;2023-08-07T13:23:02;101097.66;;;17.37;100.00
5996;BME280;3026;53.612;7.278;2023-08-07T13:25:31;101090.22;;;17.44;100.00
5996;BME280;3026;53.612;7.278;2023-08-07T13:27:58;101091.06;;;17.45;100.00
5996;BME280;3026;53.612;7.278;2023-08-07T13:35:52;101079.19;;;17.58;100.00
5996;BME280;3026;53.612;7.278;2023-08-07T13:38:22;101086.38;;;17.59;100.00
5996;BME280;3026;53.612;7.278;2023-08-07T13:40:56;101101.22;;;17.58;100.00
5996;BME280;3026;53.612;7.278;2023-08-07T13:43:23;101092.75;;;17.53;100.00
5996;BME280;3026;53.612;7.278;2023-08-07T13:45:50;101114.59;;;17.47;100.00
5996;BME280;3026;53.612;7.278;2023-08-07T13:48:17;101111.44;;;17.37;100.00
5996;BME280;3026;53.612;7.278;2023-08-07T13:50:45;101112.25;;;17.31;100.00
5996;BME280;3026;53.612;7.278;2023-08-07T13:53:14;101119.03;;;17.15;100.00
5996;BME280;3026;53.612;7.278;2023-08-07T13:55:41;101100.75;;;16.95;100.00
5996;BME280;3026;53.612;7.278;2023-08-07T13:58:08;101116.41;;;16.87;100.00
5996;BME280;3026;53.612;7.278;2023-08-07T14:00:35;101099.41;;;16.77;100.00
5996;BME280;3026;53.612;7.278;2023-08-07T14:03:05;101112.13;;;16.78;100.00
5996;BME280;3026;53.612;7.278;2023-08-07T14:05:32;101115.53;;;16.80;100.00
5996;BME280;3026;53.612;7.278;2023-08-07T14:08:01;101112.59;;;16.88;100.00
5996;BME280;3026;53.612;7.278;2023-08-07T14:10:34;101115.19;;;17.03;100.00
5996;BME280;3026;53.612;7.278;2023-08-07T14:13:06;101122.63;;;17.16;100.00
5996;BME280;3026;53.612;7.278;2023-08-07T14:15:37;101102.09;;;17.25;100.00
5996;BME280;3026;53.612;7.278;2023-08-07T14:18:05;101109.69;;;17.36;100.00
5996;BME280;3026;53.612;7.278;2023-08-07T14:20:34;101116.50;;;17.40;100.00
5996;BME280;3026;53.612;7.278;2023-08-07T14:23:21;101117.16;;;17.42;100.00
5996;BME280;3026;53.612;7.278;2023-08-07T14:29:37;101125.81;;;17.33;100.00
5996;BME280;3026;53.612;7.278;2023-08-07T14:32:07;101157.63;;;17.29;100.00
5996;BME280;3026;53.612;7.278;2023-08-07T14:34:39;101126.66;;;17.20;100.00
5996;BME280;3026;53.612;7.278;2023-08-07T14:37:20;101139.13;;;17.09;100.00
5996;BME280;3026;53.612;7.278;2023-08-07T14:40:02;101146.34;;;17.04;100.00
5996;BME280;3026;53.612;7.278;2023-08-07T14:42:32;101157.34;;;17.04;100.00
5996;BME280;3026;53.612;7.278;2023-08-07T14:45:03;101159.66;;;16.94;100.00
5996;BME280;3026;53.612;7.278;2023-08-07T14:47:31;101137.16;;;16.83;100.00
5996;BME280;3026;53.612;7.278;2023-08-07T14:50:00;101141.16;;;16.74;100.00
5996;BME280;3026;53.612;7.278;2023-08-07T14:52:27;101139.78;;;16.63;100.00
5996;BME280;3026;53.612;7.278;2023-08-07T14:54:55;101126.66;;;16.59;100.00
5996;BME280;3026;53.612;7.278;2023-08-07T14:57:23;101137.41;;;16.54;100.00
5996;BME280;3026;53.612;7.278;2023-08-07T15:00:12;101136.56;;;16.47;100.00
5996;BME280;3026;53.612;7.278;2023-08-07T15:02:39;101139.94;;;16.49;100.00
5996;BME280;3026;53.612;7.278;2023-08-07T15:05:13;101140.75;;;16.43;100.00
5996;BME280;3026;53.612;7.278;2023-08-07T15:07:42;101155.06;;;16.31;100.00
5996;BME280;3026;53.612;7.278;2023-08-07T15:10:11;101149.13;;;16.28;100.00
5996;BME280;3026;53.612;7.278;2023-08-07T15:12:38;101147.38;;;16.20;100.00
5996;BME280;3026;53.612;7.278;2023-08-07T15:15:06;101154.56;;;16.15;100.00
5996;BME280;3026;53.612;7.278;2023-08-07T15:17:35;101154.13;;;16.11;100.00
5996;BME280;3026;53.612;7.278;2023-08-07T15:20:03;101157.53;;;16.13;100.00
5996;BME280;3026;53.612;7.278;2023-08-07T15:22:34;101141.44;;;16.17;100.00
5996;BME280;3026;53.612;7.278;2023-08-07T15:25:02;101168.16;;;16.23;100.00
5996;BME280;3026;53.612;7.278;2023-08-07T15:27:29;101168.59;;;16.26;100.00
5996;BME280;3026;53.612;7.278;2023-08-07T15:29:56;101160.16;;;16.28;100.00
5996;BME280;3026;53.612;7.278;2023-08-07T15:32:23;101161.00;;;16.28;100.00
5996;BME280;3026;53.612;7.278;2023-08-07T15:34:52;101160.56;;;16.31;100.00
5996;BME280;3026;53.612;7.278;2023-08-07T15:37:19;101164.44;;;16.37;100.00
5996;BME280;3026;53.612;7.278;2023-08-07T15:39:47;101164.47;;;16.44;100.00
5996;BME280;3026;53.612;7.278;2023-08-07T15:42:14;101169.81;;;16.52;100.00
5996;BME280;3026;53.612;7.278;2023-08-07T15:44:44;101178.97;;;16.59;100.00
5996;BME280;3026;53.612;7.278;2023-08-07T15:47:11;101173.03;;;16.62;100.00
5996;BME280;3026;53.612;7.278;2023-08-07T15:49:56;101165.28;;;16.72;100.00
5996;BME280;3026;53.612;7.278;2023-08-07T15:52:23;101169.34;;;16.83;100.00
5996;BME280;3026;53.612;7.278;2023-08-07T15:54:51;101171.72;;;16.92;100.00
5996;BME280;3026;53.612;7.278;2023-08-07T15:57:17;101167.50;;;16.97;100.00
5996;BME280;3026;53.612;7.278;2023-08-07T15:59:50;101169.81;;;16.93;100.00
5996;BME280;3026;53.612;7.278;2023-08-07T16:02:19;101177.03;;;16.94;100.00
5996;BME280;3026;53.612;7.278;2023-08-07T16:04:49;101178.28;;;16.91;100.00
5996;BME280;3026;53.612;7.278;2023-08-07T16:07:19;101176.56;;;16.84;100.00
5996;BME280;3026;53.612;7.278;2023-08-07T16:09:50;101188.84;;;16.81;100.00
5996;BME280;3026;53.612;7.278;2023-08-07T16:12:17;101169.72;;;16.73;100.00
5996;BME280;3026;53.612;7.278;2023-08-07T16:14:45;101176.94;;;16.74;100.00
5996;BME280;3026;53.612;7.278;2023-08-07T16:17:14;101184.97;;;16.69;100.00
5996;BME280;3026;53.612;7.278;2023-08-07T16:19:41;101184.69;;;16.64;100.00
5996;BME280;3026;53.612;7.278;2023-08-07T16:22:08;101187.44;;;16.57;100.00
5996;BME280;3026;53.612;7.278;2023-08-07T16:24:39;101185.25;;;16.53;100.00
5996;BME280;3026;53.612;7.278;2023-08-07T16:27:20;101172.69;;;16.37;100.00
5996;BME280;3026;53.612;7.278;2023-08-07T16:29:50;101185.81;;;16.35;100.00
5996;BME280;3026;53.612;7.278;2023-08-07T16:32:17;101180.25;;;16.28;100.00
5996;BME280;3026;53.612;7.278;2023-08-07T16:34:44;101169.00;;;16.23;100.00
5996;BME280;3026;53.612;7.278;2023-08-07T16:37:11;101167.31;;;16.22;100.00
5996;BME280;3026;53.612;7.278;2023-08-07T16:40:07;101156.47;;;16.14;100.00
5996;BME280;3026;53.612;7.278;2023-08-07T16:42:42;101165.44;;;16.29;100.00
5996;BME280;3026;53.612;7.278;2023-08-07T16:45:10;101170.78;;;16.38;100.00
5996;BME280;3026;53.612;7.278;2023-08-07T16:47:50;101157.50;;;16.48;100.00
5996;BME280;3026;53.612;7.278;2023-08-07T16:50:28;101177.66;;;16.55;100.00
5996;BME280;3026;53.612;7.278;2023-08-07T16:53:31;101166.63;;;16.55;100.00
5996;BME280;3026;53.612;7.278;2023-08-07T16:56:14;101172.13;;;16.48;100.00
5996;BME280;3026;53.612;7.278;2023-08-07T16:58:57;101166.19;;;16.45;100.00
5996;BME280;3026;53.612;7.278;2023-08-07T17:01:31;101171.03;;;16.43;100.00
5996;BME280;3026;53.612;7.278;2023-08-07T17:56:16;101135.75;;;16.18;100.00
5996;BME280;3026;53.612;7.278;2023-08-07T18:02:44;101143.16;;;16.18;100.00